sensor_id;sensor_type;location;lat;lon;timestamp;pressure;altitude;pressure_sealevel;temperature;humidity
28630;BME280;15817;42.130;24.762;2023-04-22T00:02:00;99608.47;;;14.42;100.00
28630;BME280;15817;42.130;24.762;2023-04-22T00:04:27;99618.16;;;14.46;100.00
28630;BME280;15817;42.130;24.762;2023-04-22T00:06:52;99612.81;;;14.46;100.00
28630;BME280;15817;42.130;24.762;2023-04-22T00:09:18;99618.31;;;14.40;100.00
28630;BME280;15817;42.130;24.762;2023-04-22T00:11:44;99615.53;;;14.43;100.00
28630;BME280;15817;42.130;24.762;2023-04-22T00:14:10;99620.00;;;14.42;100.00
28630;BME280;15817;42.130;24.762;2023-04-22T00:16:35;99614.59;;;14.45;100.00
28630;BME280;15817;42.130;24.762;2023-04-22T00:19:01;99608.25;;;14.49;100.00
28630;BME280;15817;42.130;24.762;2023-04-22T00:21:27;99604.78;;;14.46;100.00
28630;BME280;15817;42.130;24.762;2023-04-22T00:23:53;99609.28;;;14.44;100.00
28630;BME280;15817;42.130;24.762;2023-04-22T00:26:18;99600.47;;;14.40;100.00
28630;BME280;15817;42.130;24.762;2023-04-22T00:28:45;99602.22;;;14.41;100.00
28630;BME280;15817;42.130;24.762;2023-04-22T00:31:10;99596.91;;;14.38;100.00
28630;BME280;15817;42.130;24.762;2023-04-22T00:33:36;99604.06;;;14.38;100.00
28630;BME280;15817;42.130;24.762;2023-04-22T00:36:05;99592.56;;;14.34;100.00
28630;BME280;15817;42.130;24.762;2023-04-22T00:38:34;99592.69;;;14.30;100.00
28630;BME280;15817;42.130;24.762;2023-04-22T00:41:00;99601.41;;;14.36;100.00
28630;BME280;15817;42.130;24.762;2023-04-22T00:43:26;99597.81;;;14.39;100.00
28630;BME280;15817;42.130;24.762;2023-04-22T00:45:52;99589.94;;;14.31;100.00
28630;BME280;15817;42.130;24.762;2023-04-22T00:48:18;99595.13;;;14.39;100.00
28630;BME280;15817;42.130;24.762;2023-04-22T00:50:44;99600.50;;;14.37;100.00
28630;BME280;15817;42.130;24.762;2023-04-22T00:53:10;99596.09;;;14.35;100.00
28630;BME280;15817;42.130;24.762;2023-04-22T00:55:36;99606.75;;;14.38;100.00
28630;BME280;15817;42.130;24.762;2023-04-22T00:58:02;99604.94;;;14.38;100.00
28630;BME280;15817;42.130;24.762;2023-04-22T01:00:28;99615.66;;;14.40;100.00
28630;BME280;15817;42.130;24.762;2023-04-22T01:02:54;99620.13;;;14.39;100.00
28630;BME280;15817;42.130;24.762;2023-04-22T01:05:21;99621.91;;;14.37;100.00
28630;BME280;15817;42.130;24.762;2023-04-22T01:07:47;99616.59;;;14.36;100.00
28630;BME280;15817;42.130;24.762;2023-04-22T01:10:13;99614.81;;;14.36;100.00
28630;BME280;15817;42.130;24.762;2023-04-22T01:12:39;99628.19;;;14.36;100.00
28630;BME280;15817;42.130;24.762;2023-04-22T01:15:05;99622.94;;;14.32;100.00
28630;BME280;15817;42.130;24.762;2023-04-22T01:17:31;99618.38;;;14.35;100.00
28630;BME280;15817;42.130;24.762;2023-04-22T01:19:58;99621.91;;;14.37;100.00
28630;BME280;15817;42.130;24.762;2023-04-22T01:22:31;99606.81;;;14.35;100.00
28630;BME280;15817;42.130;24.762;2023-04-22T01:24:59;99609.56;;;14.32;100.00
28630;BME280;15817;42.130;24.762;2023-04-22T01:27:26;99602.59;;;14.26;100.00
28630;BME280;15817;42.130;24.762;2023-04-22T01:29:52;99605.22;;;14.28;100.00
28630;BME280;15817;42.130;24.762;2023-04-22T01:32:18;99599.09;;;14.23;100.00
28630;BME280;15817;42.130;24.762;2023-04-22T01:34:44;99611.47;;;14.27;100.00
28630;BME280;15817;42.130;24.762;2023-04-22T01:37:11;99612.44;;;14.24;100.00
28630;BME280;15817;42.130;24.762;2023-04-22T01:39:38;99604.56;;;14.18;100.00
28630;BME280;15817;42.130;24.762;2023-04-22T01:42:03;99614.28;;;14.21;100.00
28630;BME280;15817;42.130;24.762;2023-04-22T01:44:29;99613.50;;;14.17;100.00
28630;BME280;15817;42.130;24.762;2023-04-22T01:46:55;99607.41;;;14.10;100.00
28630;BME280;15817;42.130;24.762;2023-04-22T01:49:21;99611.09;;;14.06;100.00
28630;BME280;15817;42.130;24.762;2023-04-22T01:51:49;99611.91;;;14.08;100.00
28630;BME280;15817;42.130;24.762;2023-04-22T01:54:15;99599.56;;;14.04;100.00
28630;BME280;15817;42.130;24.762;2023-04-22T01:56:41;99610.19;;;14.07;100.00
28630;BME280;15817;42.130;24.762;2023-04-22T01:59:08;99599.53;;;14.06;100.00
28630;BME280;15817;42.130;24.762;2023-04-22T02:01:38;99590.88;;;13.95;100.00
28630;BME280;15817;42.130;24.762;2023-04-22T02:04:05;99593.63;;;13.92;100.00
28630;BME280;15817;42.130;24.762;2023-04-22T02:06:31;99597.22;;;13.91;100.00
28630;BME280;15817;42.130;24.762;2023-04-22T02:08:56;99600.75;;;13.91;100.00
28630;BME280;15817;42.130;24.762;2023-04-22T02:11:22;99591.06;;;13.86;100.00
28630;BME280;15817;42.130;24.762;2023-04-22T02:13:48;99597.25;;;13.89;100.00
28630;BME280;15817;42.130;24.762;2023-04-22T02:16:14;99594.59;;;13.88;100.00
28630;BME280;15817;42.130;24.762;2023-04-22T02:18:40;99590.19;;;13.85;100.00
28630;BME280;15817;42.130;24.762;2023-04-22T02:21:07;99585.88;;;13.81;100.00
28630;BME280;15817;42.130;24.762;2023-04-22T02:23:33;99594.78;;;13.80;100.00
28630;BME280;15817;42.130;24.762;2023-04-22T02:25:59;99591.31;;;13.76;100.00
28630;BME280;15817;42.130;24.762;2023-04-22T02:28:25;99592.25;;;13.74;100.00
28630;BME280;15817;42.130;24.762;2023-04-22T02:30:51;99601.28;;;13.70;100.00
28630;BME280;15817;42.130;24.762;2023-04-22T02:33:16;99590.72;;;13.62;100.00
28630;BME280;15817;42.130;24.762;2023-04-22T02:35:45;99598.75;;;13.62;100.00
28630;BME280;15817;42.130;24.762;2023-04-22T02:38:16;99601.50;;;13.59;100.00
28630;BME280;15817;42.130;24.762;2023-04-22T02:40:42;99608.81;;;13.51;100.00
28630;BME280;15817;42.130;24.762;2023-04-22T02:43:07;99608.00;;;13.48;100.00
28630;BME280;15817;42.130;24.762;2023-04-22T02:45:33;99608.88;;;13.50;100.00
28630;BME280;15817;42.130;24.762;2023-04-22T02:47:59;99609.78;;;13.49;100.00
28630;BME280;15817;42.130;24.762;2023-04-22T02:50:25;99609.78;;;13.49;100.00
28630;BME280;15817;42.130;24.762;2023-04-22T02:52:50;99608.88;;;13.48;100.00
28630;BME280;15817;42.130;24.762;2023-04-22T02:55:16;99618.66;;;13.49;100.00
28630;BME280;15817;42.130;24.762;2023-04-22T02:57:42;99607.19;;;13.44;100.00
28630;BME280;15817;42.130;24.762;2023-04-22T03:00:08;99611.59;;;13.47;100.00
28630;BME280;15817;42.130;24.762;2023-04-22T03:02:35;99605.31;;;13.49;100.00
28630;BME280;15817;42.130;24.762;2023-04-22T03:05:09;99611.53;;;13.50;100.00
28630;BME280;15817;42.130;24.762;2023-04-22T03:07:35;99611.56;;;13.48;100.00
28630;BME280;15817;42.130;24.762;2023-04-22T03:10:01;99608.13;;;13.41;100.00
28630;BME280;15817;42.130;24.762;2023-04-22T03:12:27;99610.78;;;13.43;100.00
28630;BME280;15817;42.130;24.762;2023-04-22T03:14:53;99612.53;;;13.44;100.00
28630;BME280;15817;42.130;24.762;2023-04-22T03:17:20;99606.31;;;13.44;100.00
28630;BME280;15817;42.130;24.762;2023-04-22T03:19:47;99603.63;;;13.44;100.00
28630;BME280;15817;42.130;24.762;2023-04-22T03:22:13;99612.50;;;13.46;100.00
28630;BME280;15817;42.130;24.762;2023-04-22T03:24:40;99605.44;;;13.41;100.00
28630;BME280;15817;42.130;24.762;2023-04-22T03:27:10;99604.66;;;13.38;100.00
28630;BME280;15817;42.130;24.762;2023-04-22T03:29:36;99615.19;;;13.44;100.00
28630;BME280;15817;42.130;24.762;2023-04-22T03:32:02;99605.59;;;13.35;100.00
28630;BME280;15817;42.130;24.762;2023-04-22T03:34:28;99608.31;;;13.32;100.00
28630;BME280;15817;42.130;24.762;2023-04-22T03:36:54;99619.94;;;13.30;100.00
28630;BME280;15817;42.130;24.762;2023-04-22T03:39:20;99615.69;;;13.21;100.00
28630;BME280;15817;42.130;24.762;2023-04-22T03:41:47;99622.97;;;13.15;100.00
28630;BME280;15817;42.130;24.762;2023-04-22T03:44:13;99629.44;;;13.00;100.00
28630;BME280;15817;42.130;24.762;2023-04-22T03:46:42;99630.38;;;12.97;100.00
28630;BME280;15817;42.130;24.762;2023-04-22T03:49:16;99648.84;;;13.08;100.00
28630;BME280;15817;42.130;24.762;2023-04-22T03:51:42;99634.66;;;13.06;100.00
28630;BME280;15817;42.130;24.762;2023-04-22T03:54:12;99648.91;;;13.05;100.00
28630;BME280;15817;42.130;24.762;2023-04-22T03:56:44;99642.81;;;12.98;100.00
28630;BME280;15817;42.130;24.762;2023-04-22T03:59:10;99652.66;;;12.95;100.00
28630;BME280;15817;42.130;24.762;2023-04-22T04:01:36;99640.34;;;12.89;100.00
28630;BME280;15817;42.130;24.762;2023-04-22T04:04:05;99661.66;;;12.91;100.00
28630;BME280;15817;42.130;24.762;2023-04-22T04:06:38;99664.47;;;12.82;100.00
28630;BME280;15817;42.130;24.762;2023-04-22T04:09:03;99658.34;;;12.77;100.00
28630;BME280;15817;42.130;24.762;2023-04-22T04:11:31;99664.47;;;12.82;100.00
28630;BME280;15817;42.130;24.762;2023-04-22T04:13:58;99661.84;;;12.80;100.00
28630;BME280;15817;42.130;24.762;2023-04-22T04:16:28;99658.34;;;12.77;100.00
28630;BME280;15817;42.130;24.762;2023-04-22T04:19:00;99662.72;;;12.81;100.00
28630;BME280;15817;42.130;24.762;2023-04-22T04:21:26;99664.41;;;12.85;100.00
28630;BME280;15817;42.130;24.762;2023-04-22T04:23:54;99662.75;;;12.79;100.00
28630;BME280;15817;42.130;24.762;2023-04-22T04:26:25;99668.84;;;12.87;100.00
28630;BME280;15817;42.130;24.762;2023-04-22T04:28:57;99672.28;;;12.92;100.00
28630;BME280;15817;42.130;24.762;2023-04-22T04:31:25;99670.50;;;12.93;100.00
28630;BME280;15817;42.130;24.762;2023-04-22T04:33:55;99677.50;;;13.00;100.00
28630;BME280;15817;42.130;24.762;2023-04-22T04:36:22;99657.13;;;12.94;100.00
28630;BME280;15817;42.130;24.762;2023-04-22T04:39:00;99661.50;;;12.98;100.00
28630;BME280;15817;42.130;24.762;2023-04-22T04:41:27;99666.88;;;12.95;100.00
28630;BME280;15817;42.130;24.762;2023-04-22T04:43:54;99672.16;;;13.00;100.00
28630;BME280;15817;42.130;24.762;2023-04-22T04:46:29;99664.91;;;13.05;100.00
28630;BME280;15817;42.130;24.762;2023-04-22T04:48:57;99679.06;;;13.12;100.00
28630;BME280;15817;42.130;24.762;2023-04-22T04:51:25;99679.91;;;13.14;100.00
28630;BME280;15817;42.130;24.762;2023-04-22T04:53:55;99684.41;;;13.12;100.00
28630;BME280;15817;42.130;24.762;2023-04-22T04:56:23;99686.97;;;13.18;100.00
28630;BME280;15817;42.130;24.762;2023-04-22T04:58:53;99681.59;;;13.19;100.00
28630;BME280;15817;42.130;24.762;2023-04-22T05:01:49;99681.56;;;13.21;100.00
28630;BME280;15817;42.130;24.762;2023-04-22T05:04:16;99669.25;;;13.12;100.00
28630;BME280;15817;42.130;24.762;2023-04-22T05:06:42;99677.97;;;13.23;100.00
28630;BME280;15817;42.130;24.762;2023-04-22T05:09:08;99684.19;;;13.24;100.00
28630;BME280;15817;42.130;24.762;2023-04-22T05:11:35;99683.31;;;13.23;100.00
28630;BME280;15817;42.130;24.762;2023-04-22T05:14:16;99678.81;;;13.25;100.00
28630;BME280;15817;42.130;24.762;2023-04-22T05:16:55;99683.25;;;13.26;100.00
28630;BME280;15817;42.130;24.762;2023-04-22T05:19:27;99695.53;;;13.36;100.00
28630;BME280;15817;42.130;24.762;2023-04-22T05:21:56;99686.66;;;13.33;100.00
28630;BME280;15817;42.130;24.762;2023-04-22T05:24:22;99677.91;;;13.26;100.00
28630;BME280;15817;42.130;24.762;2023-04-22T05:26:49;99680.44;;;13.34;100.00
28630;BME280;15817;42.130;24.762;2023-04-22T05:29:20;99687.47;;;13.38;100.00
28630;BME280;15817;42.130;24.762;2023-04-22T05:31:46;99680.47;;;13.31;100.00
28630;BME280;15817;42.130;24.762;2023-04-22T05:34:12;99688.47;;;13.32;100.00
28630;BME280;15817;42.130;24.762;2023-04-22T05:36:38;99689.34;;;13.33;100.00
28630;BME280;15817;42.130;24.762;2023-04-22T05:39:07;99685.66;;;13.38;100.00
28630;BME280;15817;42.130;24.762;2023-04-22T05:41:34;99690.00;;;13.44;100.00
28630;BME280;15817;42.130;24.762;2023-04-22T05:44:12;99697.06;;;13.48;100.00
28630;BME280;15817;42.130;24.762;2023-04-22T05:46:38;99685.34;;;13.54;100.00
28630;BME280;15817;42.130;24.762;2023-04-22T05:49:09;99688.84;;;13.57;100.00
28630;BME280;15817;42.130;24.762;2023-04-22T05:52:03;99689.66;;;13.61;100.00
28630;BME280;15817;42.130;24.762;2023-04-22T05:54:40;99681.75;;;13.55;100.00
28630;BME280;15817;42.130;24.762;2023-04-22T05:57:07;99691.53;;;13.56;100.00
28630;BME280;15817;42.130;24.762;2023-04-22T05:59:33;99687.13;;;13.53;100.00
28630;BME280;15817;42.130;24.762;2023-04-22T06:02:02;99685.28;;;13.57;100.00
28630;BME280;15817;42.130;24.762;2023-04-22T06:04:28;99704.69;;;13.66;100.00
28630;BME280;15817;42.130;24.762;2023-04-22T06:06:55;99689.63;;;13.62;100.00
28630;BME280;15817;42.130;24.762;2023-04-22T06:09:26;99688.72;;;13.62;100.00
28630;BME280;15817;42.130;24.762;2023-04-22T06:11:54;99689.56;;;13.65;100.00
28630;BME280;15817;42.130;24.762;2023-04-22T06:14:20;99678.00;;;13.63;100.00
28630;BME280;15817;42.130;24.762;2023-04-22T06:16:49;99691.25;;;13.69;100.00
28630;BME280;15817;42.130;24.762;2023-04-22T06:19:17;99690.31;;;13.72;100.00
28630;BME280;15817;42.130;24.762;2023-04-22T06:21:44;99694.63;;;13.77;100.00
28630;BME280;15817;42.130;24.762;2023-04-22T06:24:10;99683.19;;;13.72;100.00
28630;BME280;15817;42.130;24.762;2023-04-22T06:26:36;99698.09;;;13.83;100.00
28630;BME280;15817;42.130;24.762;2023-04-22T06:29:03;99692.75;;;13.83;100.00
28630;BME280;15817;42.130;24.762;2023-04-22T06:32:26;99686.53;;;13.82;100.00
28630;BME280;15817;42.130;24.762;2023-04-22T06:38:40;99677.41;;;13.91;100.00
28630;BME280;15817;42.130;24.762;2023-04-22T06:41:40;99691.56;;;13.96;100.00
28630;BME280;15817;42.130;24.762;2023-04-22T06:44:38;99690.53;;;14.01;100.00
28630;BME280;15817;42.130;24.762;2023-04-22T06:47:40;99675.38;;;14.02;100.00
28630;BME280;15817;42.130;24.762;2023-04-22T06:50:17;99680.56;;;14.08;100.00
28630;BME280;15817;42.130;24.762;2023-04-22T06:52:48;99678.84;;;14.07;100.00
28630;BME280;15817;42.130;24.762;2023-04-22T06:55:14;99691.19;;;14.12;100.00
28630;BME280;15817;42.130;24.762;2023-04-22T06:57:40;99689.34;;;14.14;100.00
28630;BME280;15817;42.130;24.762;2023-04-22T07:00:07;99691.88;;;14.21;100.00
28630;BME280;15817;42.130;24.762;2023-04-22T07:02:43;99680.38;;;14.17;100.00
28630;BME280;15817;42.130;24.762;2023-04-22T07:05:09;99683.84;;;14.21;100.00
28630;BME280;15817;42.130;24.762;2023-04-22T07:07:35;99682.03;;;14.21;100.00
28630;BME280;15817;42.130;24.762;2023-04-22T07:10:01;99697.84;;;14.32;100.00
28630;BME280;15817;42.130;24.762;2023-04-22T07:12:34;99705.75;;;14.38;100.00
28630;BME280;15817;42.130;24.762;2023-04-22T07:15:00;99688.03;;;14.32;100.00
28630;BME280;15817;42.130;24.762;2023-04-22T07:17:26;99686.13;;;14.37;100.00
28630;BME280;15817;42.130;24.762;2023-04-22T07:19:55;99687.63;;;14.51;100.00
28630;BME280;15817;42.130;24.762;2023-04-22T07:22:20;99681.22;;;14.56;100.00
28630;BME280;15817;42.130;24.762;2023-04-22T07:24:46;99687.28;;;14.64;100.00
28630;BME280;15817;42.130;24.762;2023-04-22T07:27:12;99691.47;;;14.74;100.00
28630;BME280;15817;42.130;24.762;2023-04-22T07:29:40;99691.34;;;14.79;100.00
28630;BME280;15817;42.130;24.762;2023-04-22T07:32:06;99686.81;;;14.82;100.00
28630;BME280;15817;42.130;24.762;2023-04-22T07:34:32;99692.75;;;14.94;100.00
28630;BME280;15817;42.130;24.762;2023-04-22T07:37:00;99702.19;;;15.08;100.00
28630;BME280;15817;42.130;24.762;2023-04-22T07:39:26;99708.72;;;15.31;99.72
28630;BME280;15817;42.130;24.762;2023-04-22T07:41:52;99691.59;;;15.35;96.50
28630;BME280;15817;42.130;24.762;2023-04-22T07:44:18;99694.78;;;15.49;94.44
28630;BME280;15817;42.130;24.762;2023-04-22T07:46:49;99689.91;;;15.65;95.83
28630;BME280;15817;42.130;24.762;2023-04-22T07:49:15;99692.03;;;15.83;93.34
28630;BME280;15817;42.130;24.762;2023-04-22T07:51:44;99696.09;;;15.96;89.44
28630;BME280;15817;42.130;24.762;2023-04-22T07:54:10;99691.91;;;16.15;88.73
28630;BME280;15817;42.130;24.762;2023-04-22T07:56:36;99704.41;;;16.44;88.78
28630;BME280;15817;42.130;24.762;2023-04-22T07:59:04;99703.69;;;16.67;86.85
28630;BME280;15817;42.130;24.762;2023-04-22T08:01:36;99688.69;;;16.86;87.25
28630;BME280;15817;42.130;24.762;2023-04-22T08:04:10;99694.28;;;17.07;83.70
28630;BME280;15817;42.130;24.762;2023-04-22T08:06:36;99695.28;;;17.29;83.15
28630;BME280;15817;42.130;24.762;2023-04-22T08:09:04;99685.69;;;17.45;82.35
28630;BME280;15817;42.130;24.762;2023-04-22T08:11:30;99692.06;;;17.67;79.46
28630;BME280;15817;42.130;24.762;2023-04-22T08:13:56;99681.91;;;17.76;78.94
28630;BME280;15817;42.130;24.762;2023-04-22T08:16:22;99696.75;;;18.09;78.32
28630;BME280;15817;42.130;24.762;2023-04-22T08:18:58;99691.63;;;18.25;77.46
28630;BME280;15817;42.130;24.762;2023-04-22T08:21:35;99683.88;;;18.39;76.48
28630;BME280;15817;42.130;24.762;2023-04-22T08:24:02;99678.50;;;18.61;75.81
28630;BME280;15817;42.130;24.762;2023-04-22T08:26:30;99687.44;;;18.83;73.65
28630;BME280;15817;42.130;24.762;2023-04-22T08:28:56;99673.38;;;18.97;73.42
28630;BME280;15817;42.130;24.762;2023-04-22T08:31:22;99688.66;;;19.16;72.52
28630;BME280;15817;42.130;24.762;2023-04-22T08:33:48;99671.28;;;19.44;71.40
28630;BME280;15817;42.130;24.762;2023-04-22T08:36:15;99661.41;;;19.63;70.42
28630;BME280;15817;42.130;24.762;2023-04-22T08:38:41;99654.44;;;19.78;69.83
28630;BME280;15817;42.130;24.762;2023-04-22T08:41:11;99666.28;;;19.94;69.65
28630;BME280;15817;42.130;24.762;2023-04-22T08:43:40;99658.66;;;20.21;67.85
28630;BME280;15817;42.130;24.762;2023-04-22T08:46:24;99660.06;;;20.30;66.93
28630;BME280;15817;42.130;24.762;2023-04-22T08:48:58;99651.94;;;20.30;65.87
28630;BME280;15817;42.130;24.762;2023-04-22T08:51:31;99657.19;;;20.33;64.41
28630;BME280;15817;42.130;24.762;2023-04-22T08:53:58;99639.78;;;20.40;65.38
28630;BME280;15817;42.130;24.762;2023-04-22T08:56:25;99655.47;;;20.68;64.45
28630;BME280;15817;42.130;24.762;2023-04-22T08:58:55;99661.19;;;20.62;64.27
28630;BME280;15817;42.130;24.762;2023-04-22T09:01:22;99636.94;;;20.77;64.50
28630;BME280;15817;42.130;24.762;2023-04-22T09:03:48;99637.44;;;20.85;63.96
28630;BME280;15817;42.130;24.762;2023-04-22T09:06:18;99629.56;;;20.98;63.32
28630;BME280;15817;42.130;24.762;2023-04-22T09:08:47;99629.81;;;21.11;64.38
28630;BME280;15817;42.130;24.762;2023-04-22T09:11:12;99632.16;;;21.17;65.55
28630;BME280;15817;42.130;24.762;2023-04-22T09:13:39;99620.88;;;21.26;64.46
28630;BME280;15817;42.130;24.762;2023-04-22T09:16:08;99628.78;;;21.30;63.32
28630;BME280;15817;42.130;24.762;2023-04-22T09:18:41;99626.66;;;21.36;62.45
28630;BME280;15817;42.130;24.762;2023-04-22T09:21:23;99613.19;;;21.51;62.21
28630;BME280;15817;42.130;24.762;2023-04-22T09:23:59;99603.88;;;21.73;61.66
28630;BME280;15817;42.130;24.762;2023-04-22T09:26:29;99604.53;;;21.78;60.00
28630;BME280;15817;42.130;24.762;2023-04-22T09:28:59;99599.38;;;21.89;60.29
28630;BME280;15817;42.130;24.762;2023-04-22T09:31:28;99612.69;;;22.09;60.98
28630;BME280;15817;42.130;24.762;2023-04-22T09:33:56;99605.78;;;22.03;57.87
28630;BME280;15817;42.130;24.762;2023-04-22T09:36:28;99589.25;;;22.08;58.26
28630;BME280;15817;42.130;24.762;2023-04-22T09:38:56;99588.94;;;22.14;57.64
28630;BME280;15817;42.130;24.762;2023-04-22T09:41:52;99585.75;;;22.22;57.08
28630;BME280;15817;42.130;24.762;2023-04-22T09:44:18;99595.09;;;22.32;57.39
28630;BME280;15817;42.130;24.762;2023-04-22T09:46:48;99590.28;;;22.37;56.10
28630;BME280;15817;42.130;24.762;2023-04-22T09:49:17;99584.88;;;22.06;53.90
28630;BME280;15817;42.130;24.762;2023-04-22T09:51:43;99576.09;;;22.02;54.06
28630;BME280;15817;42.130;24.762;2023-04-22T09:54:10;99571.84;;;22.28;54.40
28630;BME280;15817;42.130;24.762;2023-04-22T09:56:51;99571.66;;;22.31;55.26
28630;BME280;15817;42.130;24.762;2023-04-22T09:59:26;99561.94;;;22.43;55.88
28630;BME280;15817;42.130;24.762;2023-04-22T10:02:00;99564.94;;;22.38;54.54
28630;BME280;15817;42.130;24.762;2023-04-22T10:04:29;99561.97;;;22.72;55.09
28630;BME280;15817;42.130;24.762;2023-04-22T10:06:58;99563.09;;;22.84;54.60
28630;BME280;15817;42.130;24.762;2023-04-22T10:09:39;99560.56;;;22.81;54.64
28630;BME280;15817;42.130;24.762;2023-04-22T10:12:08;99560.78;;;23.06;54.17
28630;BME280;15817;42.130;24.762;2023-04-22T10:14:34;99560.69;;;23.22;52.29
28630;BME280;15817;42.130;24.762;2023-04-22T10:17:00;99561.56;;;23.37;51.92
28630;BME280;15817;42.130;24.762;2023-04-22T10:19:31;99553.16;;;23.41;51.99
28630;BME280;15817;42.130;24.762;2023-04-22T10:22:00;99560.63;;;23.38;50.35
28630;BME280;15817;42.130;24.762;2023-04-22T10:24:35;99562.44;;;23.37;49.54
28630;BME280;15817;42.130;24.762;2023-04-22T10:27:03;99571.16;;;23.14;50.67
28630;BME280;15817;42.130;24.762;2023-04-22T10:29:37;99567.50;;;23.29;51.47
28630;BME280;15817;42.130;24.762;2023-04-22T10:34:43;99567.81;;;23.53;51.00
28630;BME280;15817;42.130;24.762;2023-04-22T10:37:12;99569.66;;;23.53;50.78
28630;BME280;15817;42.130;24.762;2023-04-22T10:39:40;99561.53;;;23.53;51.00
28630;BME280;15817;42.130;24.762;2023-04-22T10:42:09;99563.13;;;23.69;51.11
28630;BME280;15817;42.130;24.762;2023-04-22T10:44:53;99571.41;;;23.54;51.15
28630;BME280;15817;42.130;24.762;2023-04-22T10:47:37;99575.56;;;22.41;54.36
28630;BME280;15817;42.130;24.762;2023-04-22T11:02:05;99563.56;;;21.35;58.49
28630;BME280;15817;42.130;24.762;2023-04-22T11:04:31;99562.59;;;21.85;56.85
28630;BME280;15817;42.130;24.762;2023-04-22T11:09:59;99578.63;;;22.51;53.99
28630;BME280;15817;42.130;24.762;2023-04-22T11:17:38;99584.63;;;22.10;54.28
28630;BME280;15817;42.130;24.762;2023-04-22T11:20:08;99609.53;;;21.52;54.16
28630;BME280;15817;42.130;24.762;2023-04-22T11:22:49;99589.09;;;20.62;54.63
28630;BME280;15817;42.130;24.762;2023-04-22T11:28:26;99612.41;;;20.10;55.81
28630;BME280;15817;42.130;24.762;2023-04-22T11:31:31;99619.25;;;19.98;56.63
28630;BME280;15817;42.130;24.762;2023-04-22T11:33:59;99626.44;;;19.80;56.29
28630;BME280;15817;42.130;24.762;2023-04-22T11:36:27;99619.94;;;19.66;56.58
28630;BME280;15817;42.130;24.762;2023-04-22T11:38:58;99637.50;;;19.56;57.30
28630;BME280;15817;42.130;24.762;2023-04-22T11:41:33;99636.63;;;19.35;57.75
28630;BME280;15817;42.130;24.762;2023-04-22T11:44:07;99627.88;;;19.30;58.07
28630;BME280;15817;42.130;24.762;2023-04-22T11:46:33;99637.84;;;19.28;58.59
28630;BME280;15817;42.130;24.762;2023-04-22T11:49:38;99648.41;;;19.73;56.59
28630;BME280;15817;42.130;24.762;2023-04-22T11:52:47;99645.41;;;19.60;57.16
28630;BME280;15817;42.130;24.762;2023-04-22T11:55:15;99647.75;;;19.27;58.70
28630;BME280;15817;42.130;24.762;2023-04-22T11:57:43;99664.34;;;19.18;58.78
28630;BME280;15817;42.130;24.762;2023-04-22T12:00:15;99652.28;;;19.06;61.12
28630;BME280;15817;42.130;24.762;2023-04-22T12:02:42;99654.16;;;19.04;62.78
28630;BME280;15817;42.130;24.762;2023-04-22T12:05:10;99644.53;;;18.78;63.55
28630;BME280;15817;42.130;24.762;2023-04-22T12:07:57;99649.09;;;18.76;64.83
28630;BME280;15817;42.130;24.762;2023-04-22T12:10:24;99645.72;;;18.71;64.05
28630;BME280;15817;42.130;24.762;2023-04-22T12:12:53;99660.63;;;18.80;63.95
28630;BME280;15817;42.130;24.762;2023-04-22T12:15:55;99666.63;;;18.87;63.72
28630;BME280;15817;42.130;24.762;2023-04-22T12:18:32;99669.50;;;18.82;63.76
28630;BME280;15817;42.130;24.762;2023-04-22T12:21:10;99663.59;;;18.74;64.23
28630;BME280;15817;42.130;24.762;2023-04-22T12:23:45;99667.50;;;18.67;65.75
28630;BME280;15817;42.130;24.762;2023-04-22T12:26:12;99677.16;;;18.49;69.63
28630;BME280;15817;42.130;24.762;2023-04-22T12:28:47;99674.53;;;18.48;74.21
28630;BME280;15817;42.130;24.762;2023-04-22T12:31:16;99679.25;;;18.42;73.49
28630;BME280;15817;42.130;24.762;2023-04-22T12:33:46;99672.28;;;18.37;77.11
28630;BME280;15817;42.130;24.762;2023-04-22T12:40:03;99671.50;;;18.12;78.68
28630;BME280;15817;42.130;24.762;2023-04-22T12:42:29;99663.69;;;18.05;79.18
28630;BME280;15817;42.130;24.762;2023-04-22T12:44:57;99666.31;;;18.07;80.04
28630;BME280;15817;42.130;24.762;2023-04-22T12:47:26;99667.63;;;17.97;80.98
28630;BME280;15817;42.130;24.762;2023-04-22T12:50:15;99656.50;;;18.06;82.90
28630;BME280;15817;42.130;24.762;2023-04-22T12:52:43;99654.22;;;17.95;86.38
28630;BME280;15817;42.130;24.762;2023-04-22T12:55:21;99661.13;;;17.79;83.56
28630;BME280;15817;42.130;24.762;2023-04-22T12:57:50;99663.72;;;17.82;81.62
28630;BME280;15817;42.130;24.762;2023-04-22T13:00:17;99661.47;;;17.93;82.11
28630;BME280;15817;42.130;24.762;2023-04-22T13:02:47;99642.13;;;17.84;81.84
28630;BME280;15817;42.130;24.762;2023-04-22T13:05:17;99651.09;;;17.84;82.99
28630;BME280;15817;42.130;24.762;2023-04-22T13:07:44;99645.69;;;17.84;80.70
28630;BME280;15817;42.130;24.762;2023-04-22T13:10:12;99655.59;;;17.84;79.40
28630;BME280;15817;42.130;24.762;2023-04-22T13:12:39;99663.13;;;17.74;78.44
28630;BME280;15817;42.130;24.762;2023-04-22T13:15:08;99667.91;;;17.66;79.91
28630;BME280;15817;42.130;24.762;2023-04-22T13:17:34;99670.97;;;17.55;77.88
28630;BME280;15817;42.130;24.762;2023-04-22T13:20:01;99673.38;;;17.40;77.33
28630;BME280;15817;42.130;24.762;2023-04-22T13:22:27;99671.44;;;17.43;75.38
28630;BME280;15817;42.130;24.762;2023-04-22T13:24:53;99666.66;;;17.51;78.29
28630;BME280;15817;42.130;24.762;2023-04-22T13:27:22;99676.06;;;17.64;76.61
28630;BME280;15817;42.130;24.762;2023-04-22T13:29:53;99659.84;;;17.66;74.80